ADDS METAR Data INFO
IDs: Format: Raw Decoded Include TAF

Data at: 2113 UTC 22 Oct 2017

PASY 222058Z AUTO 31019KT 7SM SCT037 OVC046 03/M02 A3027 RMK AO2 PK WND 34027/33 SLP254 60000 T00261022 52010 $
PASY 221958Z AUTO 32016KT 7SM FEW015 SCT032 OVC047 02/M01 A3027 RMK AO2 PK WND 33029/17 RAE06RAB18E36 SLP254 P0000 T00211014 $
PASY 221936Z AUTO 32020G26KT 7SM FEW025 SCT038 OVC047 01/M01 A3026 RMK AO2 RAE06RAB18E36 SLP251 $
PASY 221918Z AUTO 33025G29KT 6SM -RA FEW026 BKN038 OVC047 02/M02 A3026 RMK AO2 RAE06RAB18 SLP251 $
PASY 221906Z AUTO 32022G28KT 7SM FEW031 OVC042 01/M01 A3025 RMK AO2 RAE06 SLP248 $
PASY 221858Z AUTO 32021G24KT 7SM -RA FEW024 SCT031 OVC043 01/M02 A3026 RMK AO2 PK WND 33033/04 RAE10RAB13E47RAB51 SLP251 P0000 T00131016 $
PASY 221851Z AUTO 33019G29KT 7SM -RA FEW027 SCT035 OVC044 01/M02 A3026 RMK AO2 RAE10RAB13E47RAB51 SLP251 $
PASY 221847Z AUTO 34021G29KT 7SM FEW016 SCT031 OVC044 01/M02 A3026 RMK AO2 RAE10RAB13E47 SLP251 $
PASY 221813Z AUTO 34022G33KT 7SM -RA FEW026 SCT035 OVC050 02/M02 A3025 RMK AO2 RAE10RAB13 SLP248 $
PASY 221810Z AUTO 34024G33KT 7SM FEW026 SCT035 OVC048 02/M02 A3024 RMK AO2 RAE10 SLP244 $
PASY 221758Z AUTO 31022G31KT 7SM -RA OVC048 02/M02 A3024 RMK AO2 PK WND 30033/44 RAB02E13RAB50 SLP244 P0000 60000 T00241023 10028 21002 52011 $
PASY 221750Z AUTO 31026G33KT 7SM -RA FEW033 OVC049 03/M02 A3023 RMK AO2 RAB02E13RAB50 SLP241 $
PASY 221713Z AUTO 30026G30KT 7SM OVC050 02/M02 A3024 RMK AO2 RAB02E13 SLP244 $
PASY 221702Z AUTO 31028G32KT 7SM -RA OVC050 03/M03 A3023 RMK AO2 RAB02 SLP241 $
PASY 221658Z AUTO 31025G34KT 7SM OVC055 03/M03 A3023 RMK AO2 PK WND 32034/35 RAE03 SLP241 P0000 T00251029 $
PASY 221603Z AUTO 31021G29KT 7SM FEW025 SCT049 OVC060 02/M02 A3022 RMK AO2 RAE03 SLP238 $
PASY 221558Z AUTO 30026G37KT 7SM -RA FEW025 BKN050 OVC060 02/M02 A3022 RMK AO2 PK WND 30037/52 RAB05E26RAB28E32RAB50 SLP238 P0000 T00161019 $
PASY 221550Z AUTO 30032G35KT 7SM -RA FEW025 SCT048 OVC060 02/M02 A3021 RMK AO2 RAB05E26RAB28E32RAB50 SLP234 $
PASY 221532Z AUTO 33020G31KT 7SM SCT020 BKN060 00/M02 A3022 RMK AO2 RAB05E26RAB28E32 SLP238 $
PASY 221528Z AUTO 33024G32KT 7SM -RA SCT019 SCT046 OVC060 01/M02 A3022 RMK AO2 RAB05E26RAB28 SLP238 $
PASY 221526Z AUTO 33026G32KT 7SM SCT019 BKN046 OVC060 01/M02 A3021 RMK AO2 RAB05E26 SLP234 $
PASY 221505Z AUTO 32020G29KT 7SM -RA OVC055 02/M02 A3021 RMK AO2 RAB05 SLP234 $
PASY 221458Z AUTO 32023G28KT 7SM BKN055 02/M02 A3021 RMK AO2 PK WND 32038/10 SLP234 60000 T00161020 50007 $
PASY 221358Z AUTO 32028G34KT 7SM FEW034 OVC055 03/M03 A3019 RMK AO2 PK WND 32039/27 RAE18 SLP227 P0000 T00251028 $
PASY 221318Z AUTO 32027G33KT 7SM FEW016 BKN037 BKN045 OVC050 01/M01 A3019 RMK AO2 LTG DSNT S RAE18 SLP227 $
PASY 221258Z AUTO 30017G33KT 7SM -RA SCT030 SCT042 BKN055 01/M01 A3019 RMK AO2 PK WND 33036/1159 RAB1159E30RAB48 SLP227 P0000 T00071013 $
PASY 221248Z AUTO 31027G33KT 7SM -RA FEW027 SCT041 01/M01 A3018 RMK AO2 RAB1159E30RAB48 SLP224 $
PASY 221231Z AUTO 32023G32KT 7SM SCT025 SCT043 BKN050 00/M01 A3018 RMK AO2 RAB1159E30 SLP224 $
PASY 221230Z AUTO 32022G32KT 7SM -RA SCT025 BKN045 00/M01 A3019 RMK AO2 RAB1159 SLP227 $
PASY 221159Z AUTO 32031G36KT 7SM -RA SCT019 BKN026 BKN034 BKN046 OVC055 01/00 A3018 RMK AO2 RAB59 CIG 024V035 BKN026 V SCT SLP224 $
PASY 221158Z AUTO 31024G31KT 7SM SCT019 SCT024 BKN034 BKN045 BKN055 01/M01 A3019 RMK AO2 PK WND 30036/25 RAB01E52 SLP227 P0000 60000 70002 T00091007 10024 20004 50003 $
PASY 221153Z AUTO 30020KT 7SM FEW017 SCT022 BKN033 BKN045 BKN055 01/M01 A3019 RMK AO2 RAB01E52 SLP227 $
PASY 221152Z AUTO 30019KT 7SM -RA FEW018 SCT025 BKN033 BKN045 BKN060 01/M01 A3019 RMK AO2 RAB01 SLP227 $
PASY 221132Z AUTO 31023G36KT 7SM -RA SCT017 BKN029 OVC046 01/M01 A3019 RMK AO2 RAB01 CIG 029V045 SLP227 $
PASY 221101Z AUTO 29030G35KT 7SM -RA FEW013 SCT047 BKN060 02/M02 A3019 RMK AO2 RAB01 SLP227 $
PASY 221058Z AUTO 31023G31KT 7SM FEW026 SCT047 SCT060 02/M02 A3018 RMK AO2 PK WND 32037/26 RAE19RAB28E44 SLP224 P0000 T00191019 $
PASY 221044Z AUTO 31029G33KT 7SM FEW014 SCT024 SCT031 BKN043 OVC060 01/M01 A3018 RMK AO2 RAE19RAB28E44 SLP224 $
PASY 221038Z AUTO 32024G29KT 7SM -RA FEW014 SCT024 BKN031 BKN043 BKN050 OVC060 01/M01 A3019 RMK AO2 RAE19RAB28 SLP227 $
PASY 221028Z AUTO 32032G37KT 7SM -RA FEW013 SCT025 BKN029 BKN038 OVC060 01/M01 A3018 RMK AO2 RAE19RAB28 CIG 029V060 PRESFR SLP224 $
PASY 221019Z AUTO 29021G32KT 7SM FEW021 SCT030 BKN037 OVC060 00/M01 A3020 RMK AO2 RAE19 SLP231 $
PASY 220958Z AUTO 31025G32KT 7SM -RA FEW024 BKN033 BKN046 OVC060 01/M01 A3019 RMK AO2 PK WND 30039/34 RAB29E52RAB56 SLP227 P0000 $
PASY 220956Z AUTO 32026G32KT 7SM -RA FEW024 BKN033 BKN046 OVC060 01/M01 A3019 RMK AO2 RAB29E52RAB56 SLP227 $
PASY 220952Z AUTO 32027G33KT 7SM FEW024 BKN035 BKN046 OVC055 01/00 A3019 RMK AO2 RAB29E52 SLP227 $
PASY 220929Z AUTO 32020G33KT 7SM -RA FEW038 BKN060 02/M01 A3018 RMK AO2 RAB29 SLP224 $
PASY 220858Z AUTO 32026G30KT 7SM FEW022 BKN060 02/M01 A3018 RMK AO2 PK WND 30035/04 RAE01RAB07E20 SLP224 P0000 60000 T00151015 400391010 52003 $
PASY 220820Z AUTO 32022G28KT 7SM FEW036 BKN050 01/M01 A3018 RMK AO2 RAE01RAB07E20 SLP224 $
PASY 220807Z AUTO 30031G35KT 7SM -RA FEW018 SCT032 BKN055 02/M01 A3018 RMK AO2 RAE01RAB07 SLP224 $
PASY 220801Z AUTO 32024G33KT 7SM FEW030 SCT043 BKN055 01/M01 A3017 RMK AO2 RAE01 SLP221 $
PASY 220758Z AUTO 32022G33KT 6SM -RA BR FEW030 SCT043 BKN055 01/M01 A3017 RMK AO2 PK WND 33039/34 RAE04RAB21E33RAB38 SLP221 P0000 T00091008 $
PASY 220738Z AUTO 33033G39KT 7SM -RA BKN046 OVC055 02/M02 A3016 RMK AO2 RAE04RAB21E33RAB38 SLP217 $
PASY 220733Z AUTO 32028G37KT 7SM BKN049 OVC055 02/M02 A3017 RMK AO2 RAE04RAB21E33 SLP221 $
PASY 220721Z AUTO 32031G36KT 7SM -RA FEW027 BKN047 OVC055 02/M01 A3016 RMK AO2 RAE04RAB21 SLP217 $
PASY 220704Z AUTO 33024G31KT 7SM FEW026 SCT031 BKN055 01/M01 A3017 RMK AO2 RAE04 SLP221 $
PASY 220658Z AUTO 31025G33KT 5SM -RA BR FEW021 SCT026 BKN031 BKN046 BKN055 01/M01 A3017 RMK AO2 PK WND 32034/41 RAB01E12RAB21E35RAB41 SLP221 P0000 $
PASY 220652Z AUTO 31021G34KT 2 3/4SM -RA BR BKN027 BKN047 01/M01 A3018 RMK AO2 VIS 2 3/4V7 RAB01E12RAB21E35RAB41 SLP224 $
PASY 220641Z AUTO 33030G34KT 7SM RA BKN028 BKN060 02/M02 A3017 RMK AO2 RAB01E12RAB21E35RAB41 SLP221 $
PASY 220635Z AUTO 31025G31KT 7SM BKN028 BKN060 02/M01 A3017 RMK AO2 RAB01E12RAB21E35 CIG 028V060 SLP221 $
PASY 220621Z AUTO 33023G28KT 7SM -RA FEW031 SCT042 BKN060 02/M02 A3017 RMK AO2 RAB01E12RAB21 SLP221 $
PASY 220612Z AUTO 33020G34KT 7SM OVC055 01/M02 A3017 RMK AO2 RAB01E12 SLP221 $
PASY 220601Z AUTO 33024G29KT 7SM -RA FEW029 OVC055 02/M02 A3017 RMK AO2 RAB01 SLP221 $
PASY 220558Z AUTO 32021G30KT 7SM FEW029 OVC055 03/M02 A3017 RMK AO2 PK WND 32034/14 RAB0459E11RAB23E49 SLP221 P0000 60000 T00251019 10039 20001 52016 $
PASY 220549Z AUTO 32023G33KT 7SM SCT034 OVC049 02/M02 A3017 RMK AO2 LTG DSNT S RAB0459E11RAB23E49 SLP221 $
PASY 220523Z AUTO 31025G34KT 7SM -RA FEW023 SCT029 BKN035 BKN044 OVC060 01/M01 A3016 RMK AO2 RAB0459E11RAB23 SLP217 $
PASY 220522Z AUTO 31027G34KT 7SM FEW023 SCT029 BKN041 BKN060 01/M01 A3016 RMK AO2 RAB0459E11 SLP217 $
PASY 220511Z AUTO 33016G26KT 7SM BKN029 BKN035 BKN045 02/M01 A3016 RMK AO2 RAB0459E11 CIG 029V039 BKN029 V SCT SLP217 $
PASY 220459Z AUTO 32023G30KT 7SM -RA FEW022 SCT030 BKN039 02/M02 A3016 RMK AO2 RAB59 SLP217 $
PASY 220458Z AUTO 32026G30KT 7SM FEW022 SCT030 02/M01 A3015 RMK AO2 RAB23E32 SLP214 P0000 T00191014 $
PASY 220432Z AUTO 33024G29KT 7SM FEW024 02/M02 A3015 RMK AO2 RAB23E32 SLP214 $
PASY 220423Z AUTO 33026G30KT 7SM -RA FEW025 03/M02 A3014 RMK AO2 RAB23 SLP210 $
PASY 220358Z AUTO 33021G26KT 7SM SCT024 02/00 A3014 RMK AO2 PK WND 34031/0258 RAB0258E16 SLP210 P0000 T00181005 $
PASY 220326Z AUTO 32019KT 7SM SCT018 01/00 A3013 RMK AO2 RAB0258E16 SLP207
PASY 220316Z AUTO 32019G28KT 6SM BR BKN019 BKN031 00/M01 A3013 RMK AO2 RAB0258E16 CIG 017V022 SLP207 $
PASY 220314Z AUTO 32025KT 2 1/2SM -RA BR FEW017 BKN022 BKN031 01/M01 A3012 RMK AO2 VIS 3/4V2 1/2 RAB0258 CIG 014V022 SLP204 $
PASY 220304Z AUTO 32021G32KT 7/8SM +RA BKN014 BKN030 BKN060 00/M02 A3013 RMK AO2 VIS 7/8V7 RAB0258 CIG 014V060 BKN014 V SCT SLP207 RVRNO $
PASY 220259Z AUTO 33025G32KT 3SM RA SCT015 SCT026 BKN030 BKN060 02/M01 A3013 RMK AO2 RAB58 SLP207 $
PASY 220258Z AUTO 33026G32KT 7SM FEW015 SCT026 SCT031 BKN060 04/M01 A3012 RMK AO2 SLP204 60000 T00361008 55003 $
PASY 220158Z AUTO 33020G29KT 7SM FEW019 SCT026 BKN033 BKN046 OVC060 02/00 A3012 RMK AO2 PK WND 33029/53 RAB08E52 SLP204 P0000 T00240002 $
PASY 220152Z AUTO 33023G27KT 7SM FEW019 SCT026 BKN033 BKN041 OVC060 02/00 A3011 RMK AO2 RAB08E52 SLP200 $
PASY 220144Z AUTO 33014KT 1 1/4SM -RA BR FEW018 SCT025 BKN031 BKN039 OVC046 01/00 A3012 RMK AO2 VIS 3/4V1 1/4 RAB08 SLP204 $
PASY 220139Z AUTO 33017G28KT 7/8SM -RA BR FEW018 BKN026 BKN034 OVC046 01/M01 A3012 RMK AO2 VIS 7/8V2 RAB08 CIG 024V037 SLP204 RVRNO $
PASY 220118Z AUTO 34015KT 1 5/8SM -RA SCT030 BKN039 BKN050 02/M01 A3012 RMK AO2 VIS 1 5/8V7 RAB08 SLP204 $
PASY 220108Z AUTO 35016KT 7SM -RA SCT030 OVC038 02/M01 A3012 RMK AO2 RAB08 SLP204 $
PASY 220058Z AUTO 34023G29KT 7SM BKN031 BKN038 03/M01 A3012 RMK AO2 SHSNE2358RAB2358E13 SLP204 P0000 T00341015 $
PASY 220012Z 32013KT 7SM SCT015 SCT050 01/00 A3013 RMK AO2A SHSNB2336E0012 SLP207 $
PASY 212358Z 34020G31KT 5SM -SHSN FEW016 SCT022 01/00 A3013 RMK AO2A PK WND 33031/54 SHSNB2336 SLP207 P0000 60001 T00121002 10038 21001 52008 $
PASY 212346Z AUTO 33014G29KT 1 1/4SM -RA BR SCT018 SCT025 BKN038 00/M02 A3014 RMK AO2 VIS 1 1/4V7 SHSNE2258RAB2258E08RAB36 PRESRR SLP210 $
PASY 212336Z 34024G30KT 320V090 5SM -SHSN FEW015 03/M01 A3012 RMK SHSNE2258B2336RAB2258E08 SLP204
PASY 212308Z AUTO 33019KT 5SM BR SCT021 SCT029 BKN038 BKN050 01/M01 A3013 RMK AO2 SHSNE2258RAB2258E08 SLP207 $
PASY 212258Z COR AUTO 33021G26KT 6SM -SHSN SCT018 SCT034 01/M01 A3013 RMK AO2 PK WND 31031/14 VIS 1 1/2V7 RAB50E58SNB58 SLP207 P0000 $ COR 2301
PASY 212250Z AUTO 34017G24KT 5SM RA SCT019 01/M02 A3013 RMK AO2 RAB50 SLP207 $
PASY 212158Z AUTO 34019KT 7SM FEW047 SCT065 04/M05 A3012 RMK AO2 PK WND 34026/15 SLP204 T00381048 $
PASY 212058Z AUTO 33020G28KT 7SM SCT037 BKN045 BKN055 03/M04 A3011 RMK AO2 PK WND 34028/46 RAE06 SLP200 P0000 60001 T00251037 52024 $
PASY 212006Z AUTO 01020G28KT 7SM FEW025 SCT036 BKN048 01/M02 A3009 RMK AO2 RAE06 SLP194 $
PASY 211959Z AUTO 02021G27KT 7SM -RA FEW025 BKN034 BKN046 01/M03 A3009 RMK AO2 WSHFT 52 SLP194 $
PASY 211958Z AUTO 01022G27KT 7SM -RA FEW025 BKN034 BKN046 02/M03 A3009 RMK AO2 RAB55 SLP194 P0000 T00171030 $
PASY 211955Z AUTO 01019G24KT 7SM -RA FEW025 SCT034 BKN046 02/M03 A3009 RMK AO2 RAB55 SLP194 $
PASY 211858Z AUTO 33019G25KT 7SM BKN040 BKN049 BKN060 01/M02 A3007 RMK AO2 PK WND 34036/39 RAB05E16 SLP187 P0001 T00051025 $
PASY 211816Z 34012KT 7SM FEW018 SCT037 BKN060 BKN080 00/M02 A3006 RMK AO2A RAB05E16 SLP183 $
PASY 211806Z AUTO 34021G33KT 6SM -RA BR FEW008 BKN034 BKN055 BKN070 OVC080 00/M02 A3005 RMK AO2 RAB05 SLP180 $
PASY 211758Z 33028G33KT 3SM BR FEW023 OVC033 02/M02 A3004 RMK AO2A PK WND 35035/12 RAE08RAB31SNB34E45 SLP177 P0000 60005 52016 $
PASY 211744Z 34021G26KT 3SM -SN FEW028 BKN034 BKN060 01/M01 A3004 RMK AO2A VIS 1 3/8V3 RAE08RAB31SNB34 SLP177 $
PASY 211734Z COR 34017KT 5SM -SN SCT031 SCT038 BKN060 BKN080 01/M02 A3003 RMK RAE08RAB31SNB34 SLP173 $ COR 1745
PASY 211731Z AUTO 33016KT 7SM -RA FEW029 SCT036 BKN060 BKN075 01/M02 A3003 RMK AO2 RAE08RAB31 SLP173 $
PASY 211709Z AUTO 34025G31KT 3SM HZ SCT035 OVC055 02/M01 A3001 RMK AO2 RAE08 SLP166 $
PASY 211708Z AUTO 34026G31KT 2 3/4SM -RA SCT035 OVC055 01/M01 A3000 RMK AO2 VIS 2 1/4V4 SLP163
PASY 211658Z AUTO 33018KT 6SM -RA BR SCT035 BKN055 BKN070 01/M01 A3001 RMK AO2 RAB54 SLP166 P0000 T00101008 $
PASY 211654Z AUTO 33014KT 7SM -RA FEW035 BKN055 BKN070 01/M01 A3001 RMK AO2 RAB54 SLP166 $
PASY 211558Z AUTO 34021G31KT 7SM FEW010 BKN045 BKN060 00/M01 A3000 RMK AO2 PK WND 34033/45 FZRAB1458E08FZDZB08E24 SLP163 P0001 T10041009 $
PASY 211525Z 34016KT 7SM FEW007 SCT020 SCT048 BKN060 00/00 A3000 RMK AO2A FZRAB1458E08FZDZB08E24 SLP163 $
PASY 211515Z COR 01016KT 7SM SCT008 SCT014 BKN020 BKN049 00/M01 A3000 RMK AO2 CIG 014V020 SLP163 $ COR 1524
PASY 211511Z 36012KT 7SM SCT008 BKN014 BKN022 OVC050 00/M01 A3000 RMK AO2A CIG 008V015 SLP163 $
PASY 211508Z 01014KT 7SM SCT008 BKN014 BKN024 OVC050 M01/M01 A3000 RMK AO2A CIG 008V015 SLP163 $
PASY 211507Z 01013KT 7SM SCT008 BKN015 BKN023 OVC050 M01/M01 A3000 RMK AO2A CIG 008V015 SLP163 $
PASY 211458Z 02014G26KT 7SM SCT009 BKN014 OVC050 M01/M01 A2999 RMK AO2A PK WND 35026/52 VIS 1 1/8V7 UPB08E18UPB49E56FZRAB56 CIG 007V024 SLP160 P0000 60000 53002 $
PASY 211457Z 02017G26KT 7SM SCT009 BKN014 OVC050 M01/M01 A2999 RMK AO2A VIS 1 3/8V7 UPB08E18UPB49E56FZRAB56 CIG 007V024 SLP160 $
PASY 211456Z 01019G26KT 7SM SCT007 SCT014 BKN025 OVC050 00/M01 A2999 RMK AO2A WSHFT 48 VIS 1 3/4V7 UPB08E18UPB49 CIG 007V024 BKN007 V FEW SLP160$
PASY 211451Z 36021G26KT 340V080 7SM -SHRA FEW007 SCT014 BKN024 OVC050 00/M01 A2999 RMK UPB08E18UPB49 CIG 014V024 BKN014 V SCT SLP160 $
PASY 211449Z AUTO 33014KT 7SM UP FEW007 SCT014 BKN024 OVC050 00/M01 A2999 RMK AO2 UPB08E18UPB49 CIG 015V024 SLP160 $
PASY 211448Z AUTO 33014KT 7SM FEW007 SCT014 BKN024 OVC050 00/M01 A2999 RMK AO2 UPB08E18 CIG 015V024 SLP160 $
PASY 211438Z AUTO 33018KT 7SM SCT011 BKN016 BKN025 00/00 A2998 RMK AO2 UPB08E18 CIG 014V024 BKN016 V SCT SLP156 $
PASY 211428Z AUTO 34018KT 7SM SCT017 BKN024 BKN029 00/00 A2998 RMK AO2 UPB08E18 CIG 024V030 BKN024 V SCT SLP156 $
PASY 211418Z AUTO 33017G22KT 5SM BR FEW017 SCT025 SCT031 00/00 A2998 RMK AO2 UPB08E18 SLP156 $
PASY 211408Z AUTO 32015G26KT 7SM UP SCT029 SCT075 00/00 A2998 RMK AO2 UPB08 SLP156 $
PASY 211358Z AUTO 31017KT 7SM FEW018 00/00 A2998 RMK AO2 PK WND 30028/1259 UPE00FZRAB00E19 SLP156 P0000 T10041005 $
PASY 211339Z AUTO 32016KT 7SM SCT016 SCT028 BKN060 M01/M01 A2997 RMK AO2 UPE00FZRAB00E19 SLP153
PASY 211319Z AUTO 29016KT 7SM FEW006 SCT018 BKN028 BKN047 OVC060 M01/M01 A2998 RMK AO2 UPE00FZRAB00E19 CIG 019V029 SLP156 $
PASY 211310Z AUTO 32016KT 7SM -FZRA FEW007 BKN019 BKN029 BKN039 OVC047 M01/M01 A2998 RMK AO2 UPE00FZRAB00 SLP156 $
PASY 211300Z AUTO 30024KT 4SM -FZRA BR FEW004 BKN016 OVC038 M01/M01 A2998 RMK AO2 UPE00FZRAB00 CIG 016V021 SLP156 $
PASY 211258Z AUTO 31023KT 5SM UP BR FEW005 SCT013 BKN019 OVC038 00/M01 A2998 RMK AO2 PK WND 27028/29 SHRAE1158FZRAB1158E14UPB16E30UPB47 CIG 019V023 SLP156 P0000 $
PASY 211247Z AUTO 28018KT 7SM UP FEW010 SCT014 BKN023 OVC038 00/00 A2998 RMK AO2 SHRAE1158FZRAB1158E14UPB16E30UPB47 CIG 022V038 SLP156 $
PASY 211230Z AUTO 27024G28KT 7SM FEW015 SCT022 SCT029 BKN034 BKN044 BKN110 00/M01 A2998
PASY 211226Z AUTO 27015KT 7SM UP FEW014 SCT029 SCT039 BKN046 BKN110 00/M01 A2998 RMK AO2 SHRAE1158FZRAB1158E14UPB16 SLP156
PASY 211216Z AUTO 28016G27KT 7SM UP SCT013 BKN024 BKN030 BKN038 M01/M01 A2999 RMK AO2 SHRAE1158FZRAB1158E14UPB16 CIG 013V037 SLP160 $
PASY 211214Z AUTO 28016G27KT 7SM SCT013 BKN023 BKN039 M01/M01 A2999 RMK AO2 SHRAE1158FZRAB1158E14 CIG 013V037 SLP160 $
PASY 211212Z AUTO 27017G27KT 7SM -FZRA BKN014 BKN039 BKN046 M01/M01 A2999 RMK AO2 SHRAE1158FZRAB1158 CIG 014V037 SLP160 $
PASY 211210Z 28017G27KT 7SM SCT015 BKN037 BKN047 M01/M01 A2999 RMK AO2A SHRAE1158FZRAB1158E1200 SLP160 $
PASY 211200Z 31021G26KT 7SM BKN018 OVC026 M01/M01 A2998 RMK AO2A VIS 2V3 SHRAE1158SHRAB1158E1200 CIG 014V018 SLP156 $
PASY 211159Z 31023KT 3SM -SHRA BR BKN016 OVC024 M01/M01 A2999 RMK AO2A VIS 2V3 SHRAE58SHRAB58 SLP160 $
PASY 211158Z 30022KT 3SM -SHRA BR BKN014 OVC024 M01/M01 A2999 RMK AO2A PK WND 30035/30 VIS N 1 VIS 2V3 FZRAE19UPB33E40SHRAB40 CIG 014V018 SLP160 P0001 60024 70026 57007 $
PASY 211155Z 30020KT 3SM -SHRA BR BKN014 OVC024 M01/M01 A2999 RMK AO2A VIS N 1 VIS 1 1/4V2 1/2 FZRAE19UPB33E40SHRAB40 CIG 014V021 SLP160 $
PASY 211145Z AUTO 30027G32KT 2 1/2SM FZRA BR BKN021 OVC030 M01/M01 A2999 RMK AO2 VIS 2 1/2V7 FZRAE19UPB33E40FZRAB40 CIG 021V032 SLP160 $
PASY 211140Z AUTO 30026G35KT 4SM -FZRA BR BKN025 OVC032 M01/M01 A2999 RMK AO2 FZRAE19UPB33E40FZRAB40 CIG 025V032 BKN V SCT SLP160 $
PASY 211133Z AUTO 30028G35KT 7SM UP SCT025 BKN031 00/M01 A2998 RMK AO2 FZRAE19UPB33 SLP156 $
PASY 211119Z AUTO 27018G23KT 7SM FEW011 SCT029 SCT034 BKN042 BKN065 M01/M01 A2999 RMK AO2 FZRAE19 SLP160 $
PASY 211108Z AUTO 27020KT 7SM -FZRA SCT009 BKN065 BKN095 M01/M01 A3000 RMK AO2 SLP163 $
PASY 211058Z AUTO 28019G23KT 1 1/2SM -FZRA BR BKN011 BKN018 M01/M01 A3000 RMK AO2 PK WND 31037/36 VIS 7/8V1 1/2 UPE0958RAB19E23UPB23E47FZRAB47 BKN011 V OVC SLP163 P0000 $
PASY 211054Z AUTO 28018G23KT 1 1/8SM -FZRA BR FEW007 BKN011 OVC018 M01/M01 A3000 RMK AO2 UPE0958RAB19E23UPB23E47FZRAB47 BKN V OVC SLP163 $
PASY 211048Z AUTO 30020KT 7/8SM FZRA BR BKN009 OVC019 M01/M02 A3001 RMK AO2 VIS 7/8V4 UPE0958RAB19E23UPB23E47FZRAB47 CIG 009V019 SLP166 RVRNO $
PASY 211047Z AUTO 30020G37KT 7/8SM UP BR BKN009 OVC019 M01/M02 A3001 RMK AO2 VIS 7/8V6 UPE0958RAB19E23UPB23 CIG 009V019 PRESRR SLP166 RVRNO $
PASY 211037Z AUTO 31029G37KT 7SM UP FEW006 SCT018 BKN023 BKN039 BKN046 00/M01 A2999 RMK AO2 WSHFT 31 UPE0958RAB19E23UPB23 CIG 023V047 BKN023 V SCT SLP160 $
PASY 211019Z AUTO 28022G26KT 7SM -RA FEW021 SCT039 SCT046 00/M01 A3000 RMK AO2 UPE0958RAB19 SLP163 $
PASY 210959Z AUTO 27016G24KT 7SM FEW014 SCT034 BKN041 BKN060 00/M01 A3001 RMK AO2 UPE58 SLP166 $
PASY 210958Z AUTO 27016G24KT 7SM UP FEW014 SCT029 BKN039 BKN060 00/M01 A3001 RMK AO2 PK WND 28026/27 UPE0858UPB25 SLP166 P0000 $
PASY 210949Z AUTO 27018G24KT 7SM UP SCT014 SCT021 BKN030 OVC038 00/M01 A3001 RMK AO2 WSHFT 38 UPE0858UPB25 SLP166
PASY 210945Z AUTO 30016G23KT 7SM UP SCT014 SCT021 BKN030 BKN040 OVC060 00/M01 A3001 RMK AO2 UPE0858UPB25 SLP166 $
PASY 210935Z AUTO 31018G26KT 5SM UP BR BKN016 BKN022 OVC038 00/M01 A3001 RMK AO2 UPE0858UPB25 CIG 016V024 SLP166 $
PASY 210925Z AUTO 30016G23KT 7SM UP BKN023 BKN036 00/M01 A3001 RMK AO2 UPE0858UPB25 CIG 022V042 BKN023 V SCT SLP166 $
PASY 210919Z AUTO 28012KT 7SM BKN022 BKN100 00/M01 A3001 RMK AO2 UPE0858 CIG 022V029 BKN022 V SCT SLP166